Time;durP1;ratioP1;P1;durP2;ratioP2;P2;SDS_P1;SDS_P2;PMS_P1;PMS_P2;Temp;Humidity;BMP_temperature;BMP_pressure;BME280_temperature;BME280_humidity;BME280_pressure;Samples;Min_cycle;Max_cycle;Signal;HPM_P1;HPM_P2
2022/08/01 00:00:36;;;;;;;27.48;15.63;;;;;;;17.94;100.00;101493.00;5135201;27;20110;-84
2022/08/01 00:03:02;;;;;;;27.83;15.70;;;;;;;17.93;100.00;101494.94;5100091;27;20118;-84
2022/08/01 00:05:27;;;;;;;23.87;15.50;;;;;;;17.93;100.00;101491.38;5099673;27;20035;-84
2022/08/01 00:07:53;;;;;;;26.50;15.98;;;;;;;17.93;100.00;101494.13;5116751;27;20029;-83
2022/08/01 00:10:18;;;;;;;27.03;15.53;;;;;;;17.94;100.00;101495.75;5116881;27;20027;-84
2022/08/01 00:12:45;;;;;;;27.40;15.73;;;;;;;17.93;100.00;101497.69;5135526;27;20031;-84
2022/08/01 00:15:13;;;;;;;31.20;16.42;;;;;;;17.94;100.00;101498.50;5116613;27;20054;-84
2022/08/01 00:17:39;;;;;;;38.40;17.60;;;;;;;17.92;100.00;101497.94;5117002;27;20519;-84
2022/08/01 00:20:07;;;;;;;28.80;15.93;;;;;;;17.93;100.00;101491.38;5099882;27;20035;-84
2022/08/01 00:22:33;;;;;;;26.60;15.90;;;;;;;17.94;100.00;101493.88;5135096;27;20023;-84
2022/08/01 00:25:00;;;;;;;29.30;16.80;;;;;;;17.95;100.00;101500.19;5116761;27;20046;-84
2022/08/01 00:27:25;;;;;;;33.15;17.50;;;;;;;17.93;100.00;101497.69;5116640;27;20027;-84
2022/08/01 00:29:51;;;;;;;34.47;17.73;;;;;;;17.93;100.00;101499.59;5099686;27;20100;-84
2022/08/01 00:32:16;;;;;;;38.92;17.70;;;;;;;17.94;100.00;101507.59;5116517;27;20023;-84
2022/08/01 00:34:41;;;;;;;32.87;16.50;;;;;;;17.93;100.00;101503.16;5116483;27;20125;-84
2022/08/01 00:37:07;;;;;;;39.03;17.57;;;;;;;17.92;100.00;101503.41;5099478;27;20031;-84
2022/08/01 00:39:33;;;;;;;30.97;17.00;;;;;;;17.92;100.00;101506.16;5116596;28;20428;-84
2022/08/01 00:41:59;;;;;;;31.65;16.88;;;;;;;17.91;100.00;101499.84;5116465;27;20060;-83
2022/08/01 00:44:25;;;;;;;31.35;16.95;;;;;;;17.91;100.00;101510.84;5116881;27;20471;-84
2022/08/01 00:46:50;;;;;;;35.90;17.60;;;;;;;17.90;100.00;101506.41;5116357;28;20031;-84
2022/08/01 00:49:16;;;;;;;33.85;18.15;;;;;;;17.91;100.00;101508.09;5116528;28;20031;-84
2022/08/01 00:51:42;;;;;;;32.10;17.60;;;;;;;17.92;100.00;101504.25;5099926;28;20076;-84
2022/08/01 00:54:07;;;;;;;42.63;18.25;;;;;;;17.91;100.00;101502.59;5098996;28;20074;-84
2022/08/01 00:56:33;;;;;;;34.57;17.07;;;;;;;17.94;100.00;101502.09;5082840;28;20033;-84
2022/08/01 00:58:58;;;;;;;34.00;17.13;;;;;;;17.93;100.00;101510.59;5116447;28;20058;-84
2022/08/01 01:01:24;;;;;;;40.28;18.40;;;;;;;17.93;100.00;101511.41;5134668;28;20023;-84
2022/08/01 01:03:51;;;;;;;39.60;19.87;;;;;;;17.92;100.00;101508.91;5116244;28;20031;-83
2022/08/01 01:06:55;;;;;;;38.30;18.55;;;;;;;17.90;100.00;101508.34;5099183;28;20043;-83
2022/08/01 01:09:32;;;;;;;42.28;18.90;;;;;;;17.90;100.00;101506.41;5095302;28;20490;-83
2022/08/01 01:12:04;;;;;;;40.63;19.03;;;;;;;17.91;100.00;101516.31;5134668;28;20024;-84
2022/08/01 01:14:54;;;;;;;43.55;19.55;;;;;;;17.92;100.00;101508.91;5117006;28;20026;-84
2022/08/01 01:17:27;;;;;;;48.70;19.48;;;;;;;17.94;100.00;101517.72;5101570;28;20087;-84
2022/08/01 01:19:56;;;;;;;36.65;18.95;;;;;;;17.96;100.00;101512.84;5116940;28;20473;-83
2022/08/01 01:23:03;;;;;;;48.40;20.88;;;;;;;17.94;100.00;101510.34;5116316;28;20023;-83
2022/08/01 01:25:37;;;;;;;40.87;20.93;;;;;;;17.98;100.00;101510.66;5031083;28;20072;-84
2022/08/01 01:28:11;;;;;;;43.53;19.63;;;;;;;17.98;100.00;101510.66;5050707;28;20029;-83
2022/08/01 01:30:40;;;;;;;39.10;19.67;;;;;;;17.96;100.00;101497.19;5113090;27;20092;-83
2022/08/01 01:33:10;;;;;;;39.85;19.08;;;;;;;17.98;100.00;101508.75;5138632;27;20027;-83
2022/08/01 01:35:41;;;;;;;40.25;18.83;;;;;;;17.96;100.00;101505.41;5138666;27;20041;-83
2022/08/01 01:38:26;;;;;;;34.50;17.67;;;;;;;17.93;100.00;101503.16;5120539;27;20348;-83
2022/08/01 01:40:53;;;;;;;35.50;17.48;;;;;;;17.95;100.00;101502.91;5137907;27;20039;-83
2022/08/01 01:43:20;;;;;;;32.20;16.67;;;;;;;17.94;100.00;101504.00;5119447;27;20035;-83
2022/08/01 01:45:47;;;;;;;30.33;15.73;;;;;;;17.91;100.00;101509.97;5138155;27;20027;-83
2022/08/01 01:48:16;;;;;;;27.10;15.88;;;;;;;17.91;100.00;101504.50;5119616;27;20118;-84
2022/08/01 01:50:45;;;;;;;29.63;16.07;;;;;;;17.88;100.00;101509.38;5119723;27;20023;-84
2022/08/01 01:53:13;;;;;;;31.30;14.50;;;;;;;17.88;100.00;101506.63;5138024;27;20023;-84
2022/08/01 01:55:40;;;;;;;26.00;14.05;;;;;;;17.86;100.00;101503.31;5137655;27;20030;-83
2022/08/01 01:58:08;;;;;;;27.80;14.80;;;;;;;17.85;100.00;101504.38;5137660;27;20122;-84
2022/08/01 02:00:35;;;;;;;28.25;15.43;;;;;;;17.84;100.00;101502.72;5119619;27;20037;-83
2022/08/01 02:03:07;;;;;;;25.43;14.63;;;;;;;17.86;100.00;101508.81;5119416;27;20565;-84
2022/08/01 02:05:34;;;;;;;30.13;15.40;;;;;;;17.85;100.00;101506.31;5118835;27;20027;-84
2022/08/01 02:08:03;;;;;;;29.90;14.68;;;;;;;17.79;100.00;101502.66;5119580;27;20104;-84
2022/08/01 02:10:30;;;;;;;27.02;14.57;;;;;;;17.76;100.00;101503.16;5137354;27;20027;-84
2022/08/01 02:12:59;;;;;;;25.65;14.95;;;;;;;17.76;100.00;101497.66;5102408;27;20027;-83
2022/08/01 02:15:26;;;;;;;29.77;14.60;;;;;;;17.79;100.00;101501.78;5119021;27;20027;-83
2022/08/01 02:17:54;;;;;;;27.75;15.18;;;;;;;17.79;100.00;101502.66;5119834;27;20019;-83
2022/08/01 02:20:20;;;;;;;32.75;14.82;;;;;;;17.78;100.00;101502.91;5137451;27;20048;-83
2022/08/01 02:23:07;;;;;;;25.90;14.35;;;;;;;17.78;100.00;101500.16;5102238;27;20104;-83
2022/08/01 02:25:38;;;;;;;32.50;14.93;;;;;;;17.77;100.00;101498.47;5137443;27;20038;-83
2022/08/01 02:28:13;;;;;;;27.25;14.73;;;;;;;17.78;100.00;101505.63;5118594;27;20031;-83
2022/08/01 02:30:43;;;;;;;28.40;14.15;;;;;;;17.82;100.00;101507.63;5137625;27;20031;-83
2022/08/01 02:33:16;;;;;;;30.05;14.85;;;;;;;17.83;100.00;101503.81;5137197;27;20039;-84
2022/08/01 02:35:43;;;;;;;26.52;13.73;;;;;;;17.85;100.00;101514.53;5136802;27;20038;-83
2022/08/01 02:38:12;;;;;;;25.93;15.00;;;;;;;17.87;100.00;101507.72;5118508;27;20495;-83
2022/08/01 02:40:42;;;;;;;25.27;14.45;;;;;;;17.89;100.00;101501.97;5118613;27;20527;-83
2022/08/01 02:43:10;;;;;;;30.75;15.98;;;;;;;17.87;100.00;101506.88;5136782;27;20106;-84
2022/08/01 02:45:38;;;;;;;28.92;15.20;;;;;;;17.86;100.00;101505.22;5118758;27;20118;-84
2022/08/01 02:48:10;;;;;;;28.73;14.60;;;;;;;17.84;100.00;101497.22;5136667;27;20076;-83
2022/08/01 02:50:36;;;;;;;30.47;14.67;;;;;;;17.86;100.00;101496.97;5136706;27;20058;-83
2022/08/01 02:53:03;;;;;;;24.80;14.00;;;;;;;17.90;100.00;101505.59;5136573;27;20023;-84
2022/08/01 02:55:32;;;;;;;29.35;14.73;;;;;;;17.87;100.00;101499.47;5118589;27;20575;-84
2022/08/01 02:57:59;;;;;;;25.00;13.80;;;;;;;17.91;100.00;101509.97;5136471;27;20114;-84
2022/08/01 03:00:26;;;;;;;32.38;15.60;;;;;;;17.91;100.00;101504.50;5118459;27;20035;-84
2022/08/01 03:02:56;;;;;;;31.53;15.77;;;;;;;17.87;100.00;101506.88;5118671;27;20027;-85
2022/08/01 03:05:23;;;;;;;29.48;14.88;;;;;;;17.84;100.00;101510.13;5101530;27;20059;-84
2022/08/01 03:07:51;;;;;;;29.58;15.70;;;;;;;17.81;100.00;101513.38;5118012;27;20518;-83
2022/08/01 03:10:17;;;;;;;33.25;16.35;;;;;;;17.84;100.00;101507.38;5118064;27;20035;-84
2022/08/01 03:12:45;;;;;;;33.45;15.75;;;;;;;17.82;100.00;101504.88;5084129;27;20491;-84
2022/08/01 03:15:13;;;;;;;32.57;15.00;;;;;;;17.82;100.00;101498.53;5101088;27;20527;-84
2022/08/01 03:17:41;;;;;;;28.45;14.95;;;;;;;17.84;100.00;101504.63;5118140;27;20027;-84
2022/08/01 03:20:10;;;;;;;35.35;15.40;;;;;;;17.83;100.00;101505.72;5136314;27;20033;-84
2022/08/01 03:22:38;;;;;;;29.60;15.73;;;;;;;17.84;100.00;101510.94;5117795;27;20092;-84
2022/08/01 03:25:06;;;;;;;30.80;15.73;;;;;;;17.83;100.00;101522.19;5118332;27;20106;-84
2022/08/01 03:27:32;;;;;;;34.93;16.60;;;;;;;17.85;100.00;101520.88;5101536;27;20031;-84
2022/08/01 03:29:59;;;;;;;34.40;17.00;;;;;;;17.84;100.00;101521.09;5100709;27;20038;-84
2022/08/01 03:32:27;;;;;;;33.65;17.25;;;;;;;17.84;100.00;101519.19;5101110;27;20125;-84
2022/08/01 03:34:52;;;;;;;38.67;17.17;;;;;;;17.82;100.00;101515.00;5117450;27;20027;-84
2022/08/01 03:37:33;;;;;;;33.67;17.43;;;;;;;17.80;100.00;101511.69;5117381;27;20028;-84
2022/08/01 03:40:06;;;;;;;33.38;17.30;;;;;;;17.77;100.00;101512.19;5117750;27;20039;-83
2022/08/01 03:42:36;;;;;;;35.40;17.75;;;;;;;17.80;100.00;101514.44;5135781;27;20027;-84
2022/08/01 03:45:09;;;;;;;34.78;16.65;;;;;;;17.80;100.00;101508.97;5117684;27;20474;-83
2022/08/01 03:47:35;;;;;;;31.67;16.67;;;;;;;17.78;100.00;101519.38;5135819;27;20023;-84
2022/08/01 03:50:06;;;;;;;37.88;17.38;;;;;;;17.77;100.00;101521.25;5117277;27;20383;-84
2022/08/01 03:52:34;;;;;;;32.45;16.13;;;;;;;17.75;100.00;101517.94;5100169;27;20027;-84
2022/08/01 03:55:05;;;;;;;37.58;17.02;;;;;;;17.73;100.00;101514.63;5135613;27;20061;-84
2022/08/01 03:57:31;;;;;;;32.47;16.98;;;;;;;17.75;100.00;101515.19;5117390;27;20051;-84
2022/08/01 04:00:01;;;;;;;36.80;16.57;;;;;;;17.73;100.00;101511.88;5083363;27;20356;-84
2022/08/01 04:02:27;;;;;;;32.15;16.08;;;;;;;17.72;100.00;101518.44;5100617;27;20028;-84
2022/08/01 04:04:54;;;;;;;29.30;15.50;;;;;;;17.75;100.00;101511.63;5100036;27;20031;-84
2022/08/01 04:07:23;;;;;;;37.58;17.08;;;;;;;17.72;100.00;101521.19;5099749;27;20051;-84
2022/08/01 04:09:48;;;;;;;33.67;17.10;;;;;;;17.69;100.00;101517.00;5100054;27;20030;-84
2022/08/01 04:12:14;;;;;;;31.17;16.13;;;;;;;17.68;100.00;101517.25;5135258;27;20027;-84
2022/08/01 04:14:39;;;;;;;35.83;16.97;;;;;;;17.71;100.00;101523.06;5116992;27;20502;-84
2022/08/01 04:17:05;;;;;;;32.87;15.87;;;;;;;17.71;100.00;101525.81;5134836;27;20483;-84
2022/08/01 04:19:30;;;;;;;33.90;15.93;;;;;;;17.72;100.00;101526.66;5099796;27;20070;-84
2022/08/01 04:21:56;;;;;;;34.33;15.63;;;;;;;17.74;100.00;101529.16;5100279;27;20054;-84
2022/08/01 04:24:23;;;;;;;30.53;15.57;;;;;;;17.72;100.00;101526.66;5100343;27;20063;-84
2022/08/01 04:26:50;;;;;;;30.30;15.65;;;;;;;17.68;100.00;101531.78;5116736;27;20509;-84
2022/08/01 04:29:19;;;;;;;33.83;16.92;;;;;;;17.67;100.00;101529.31;5116556;27;20355;-84
2022/08/01 04:31:47;;;;;;;32.17;16.20;;;;;;;17.71;100.00;101535.97;5134699;27;20087;-84
2022/08/01 04:34:16;;;;;;;32.40;16.30;;;;;;;17.73;100.00;101533.81;5116534;28;20122;-84
2022/08/01 04:36:42;;;;;;;30.37;15.30;;;;;;;17.72;100.00;101532.16;5116247;27;20385;-84
2022/08/01 04:39:09;;;;;;;33.55;16.17;;;;;;;17.73;100.00;101528.34;5116727;27;20019;-84
2022/08/01 04:41:36;;;;;;;37.20;16.33;;;;;;;17.75;100.00;101530.84;5099378;27;20118;-84
2022/08/01 04:44:02;;;;;;;30.73;15.95;;;;;;;17.78;100.00;101533.09;5117226;27;20496;-84
2022/08/01 04:46:29;;;;;;;30.23;15.82;;;;;;;17.77;100.00;101534.97;5116678;27;20077;-84
2022/08/01 04:48:55;;;;;;;32.47;15.87;;;;;;;17.82;100.00;101550.69;5099401;28;20028;-83
2022/08/01 04:51:22;;;;;;;31.75;15.30;;;;;;;17.80;100.00;101542.72;5116718;28;20054;-84
2022/08/01 04:53:50;;;;;;;28.35;15.52;;;;;;;17.83;100.00;101545.00;5116295;28;20038;-84
2022/08/01 04:56:17;;;;;;;31.23;15.57;;;;;;;17.85;100.00;101542.00;5134299;28;20034;-83
2022/08/01 04:58:43;;;;;;;24.38;14.13;;;;;;;17.85;100.00;101552.97;5134356;28;20019;-84
2022/08/01 05:01:09;;;;;;;31.40;14.50;;;;;;;17.86;100.00;101557.38;5134396;27;20034;-83
2022/08/01 05:03:34;;;;;;;26.80;14.07;;;;;;;17.84;100.00;101556.78;5103438;27;20027;-84
2022/08/01 05:06:00;;;;;;;29.33;14.33;;;;;;;17.91;100.00;101563.00;5103669;27;20481;-84
2022/08/01 05:08:25;;;;;;;26.70;14.05;;;;;;;17.96;100.00;101570.47;5120759;27;20135;-84
2022/08/01 05:10:51;;;;;;;31.07;15.00;;;;;;;17.96;100.00;101567.75;5103301;27;20060;-84
2022/08/01 05:13:16;;;;;;;27.47;13.43;;;;;;;18.04;100.00;101572.81;5086400;27;20035;-84
2022/08/01 05:15:42;;;;;;;27.63;14.80;;;;;;;18.10;100.00;101568.25;5103479;27;20038;-84
2022/08/01 05:18:07;;;;;;;26.13;14.57;;;;;;;18.14;100.00;101572.16;5103256;27;20625;-84
2022/08/01 05:20:33;;;;;;;24.40;13.00;;;;;;;18.10;100.00;101570.97;5138583;27;20034;-84
2022/08/01 05:22:59;;;;;;;24.33;12.27;;;;;;;18.05;100.00;101572.59;5138482;27;20027;-89
2022/08/01 05:25:24;;;;;;;23.50;12.20;;;;;;;18.12;100.00;101575.16;5120188;27;20019;-90
2022/08/01 05:27:49;;;;;;;22.00;11.80;;;;;;;18.21;100.00;101578.31;5120559;27;20470;-90
2022/08/01 05:30:15;;;;;;;20.52;11.32;;;;;;;18.26;100.00;101581.16;5103793;27;20050;-90
2022/08/01 05:32:43;;;;;;;15.53;9.73;;;;;;;18.30;100.00;101576.81;5120159;27;20111;-91
2022/08/01 05:35:09;;;;;;;18.38;9.45;;;;;;;18.36;100.00;101577.75;5119864;27;20086;-90
2022/08/01 05:37:34;;;;;;;16.63;9.53;;;;;;;18.46;100.00;101572.41;5119987;27;20026;-89
2022/08/01 05:40:00;;;;;;;17.35;10.02;;;;;;;18.55;100.00;101568.16;5119836;27;20038;-90
2022/08/01 05:42:26;;;;;;;15.03;9.13;;;;;;;18.64;100.00;101571.31;5103821;27;20042;-91
2022/08/01 05:44:51;;;;;;;14.10;8.87;;;;;;;18.68;100.00;101571.66;5154311;27;20414;-90
2022/08/01 05:47:17;;;;;;;16.10;9.30;;;;;;;18.68;100.00;101571.66;5120152;27;20343;-90
2022/08/01 05:49:43;;;;;;;14.52;8.82;;;;;;;18.70;100.00;101569.47;5138155;27;20459;-89
2022/08/01 05:52:11;;;;;;;15.00;8.60;;;;;;;18.65;100.00;101575.72;5137963;27;20023;-90
2022/08/01 05:54:37;;;;;;;15.32;9.18;;;;;;;18.65;100.00;101572.16;5137596;27;20486;-90
2022/08/01 05:57:05;;;;;;;20.30;8.95;;;;;;;18.69;100.00;101579.66;5102760;27;20027;-90
2022/08/01 05:59:31;;;;;;;15.20;8.17;;;;;;;18.71;100.00;101582.97;5119614;27;20155;-90
2022/08/01 06:01:56;;;;;;;17.63;8.85;;;;;;;18.68;100.00;101575.22;5119555;27;20036;-91
2022/08/01 06:04:22;;;;;;;14.33;8.30;;;;;;;18.86;100.00;101582.38;5120122;27;20084;-90
2022/08/01 06:06:48;;;;;;;12.63;7.53;;;;;;;18.96;100.00;101586.38;5116950;27;20495;-92
2022/08/01 06:09:14;;;;;;;12.00;7.90;;;;;;;19.07;100.00;101586.25;5137973;27;20031;-92
2022/08/01 06:11:42;;;;;;;14.40;7.47;;;;;;;19.17;100.00;101582.78;5137612;27;20145;-91
2022/08/01 06:14:07;;;;;;;10.13;6.88;;;;;;;19.20;100.00;101578.72;5118862;27;20019;-92
2022/08/01 06:16:33;;;;;;;16.48;7.60;;;;;;;19.35;99.82;101569.81;5119317;27;20455;-91
2022/08/01 06:18:59;;;;;;;11.40;6.80;;;;;;;19.50;99.24;101572.72;5137560;27;20023;-91
2022/08/01 06:21:27;;;;;;;10.63;6.47;;;;;;;19.69;98.02;101578.72;5119854;27;20027;-91
2022/08/01 06:23:52;;;;;;;9.75;5.72;;;;;;;19.85;96.43;101573.41;5119392;27;20035;-91
2022/08/01 06:26:19;;;;;;;11.27;6.40;;;;;;;20.01;94.79;101577.16;5121199;27;20402;-90
2022/08/01 06:28:53;;;;;;;8.63;6.05;;;;;;;20.09;94.68;101583.03;5119093;27;20026;-90
2022/08/01 06:31:19;;;;;;;11.18;6.32;;;;;;;20.10;94.91;101584.66;5103382;27;20031;-91
2022/08/01 06:33:44;;;;;;;12.67;6.60;;;;;;;20.11;94.80;101580.00;5102464;27;20118;-91
2022/08/01 06:36:10;;;;;;;9.30;6.43;;;;;;;20.16;93.74;101588.28;5119225;27;20015;-91
2022/08/01 06:38:35;;;;;;;10.50;6.53;;;;;;;20.25;94.01;101594.16;5119647;27;20180;-91
2022/08/01 06:41:03;;;;;;;10.55;6.20;;;;;;;20.37;92.05;101585.72;5137644;27;20038;-90
2022/08/01 06:43:30;;;;;;;9.73;5.80;;;;;;;20.53;92.75;101584.72;5118584;27;20085;-91
2022/08/01 06:45:55;;;;;;;9.02;6.13;;;;;;;20.57;91.45;101590.56;5137117;27;20023;-91
2022/08/01 06:48:22;;;;;;;9.80;5.50;;;;;;;20.54;91.18;101596.59;5119454;27;20053;-91
2022/08/01 06:50:47;;;;;;;8.82;5.47;;;;;;;20.53;90.49;101605.97;5136975;27;20109;-89
2022/08/01 06:53:15;;;;;;;7.70;5.57;;;;;;;20.46;89.24;101607.03;5119534;27;20068;-91
2022/08/01 06:55:41;;;;;;;8.15;5.15;;;;;;;20.54;90.00;101615.91;5102639;27;20390;-91
2022/08/01 06:58:06;;;;;;;8.07;4.97;;;;;;;20.66;89.75;101597.25;5152754;27;20027;-91
2022/08/01 07:00:32;;;;;;;5.90;3.85;;;;;;;20.71;87.38;101608.31;5136711;27;20486;-91
2022/08/01 07:02:59;;;;;;;6.00;3.53;;;;;;;20.72;87.49;101603.66;5118760;27;20038;-91
2022/08/01 07:05:25;;;;;;;6.25;3.53;;;;;;;20.87;87.81;101598.22;5153262;27;20031;-90
2022/08/01 07:07:53;;;;;;;4.93;3.83;;;;;;;21.06;87.46;101597.78;5118155;27;20043;-91
2022/08/01 07:10:19;;;;;;;4.03;3.47;;;;;;;21.23;86.76;101605.84;5101629;27;20056;-92
2022/08/01 07:12:44;;;;;;;7.47;3.83;;;;;;;21.20;85.28;101607.25;5118841;27;20407;-90
2022/08/01 07:15:21;;;;;;;6.07;3.63;;;;;;;21.20;85.50;101604.47;5102028;27;20039;-92
2022/08/01 07:17:47;;;;;;;5.72;3.47;;;;;;;21.22;85.66;101607.78;5118354;27;20023;-91
2022/08/01 07:20:13;;;;;;;7.13;3.50;;;;;;;21.37;86.40;101605.09;5136366;27;20027;-91
2022/08/01 07:22:41;;;;;;;4.93;3.25;;;;;;;21.42;83.77;101603.44;5117987;27;20027;-91
2022/08/01 07:25:07;;;;;;;5.83;3.13;;;;;;;21.52;82.64;101603.50;5116945;27;20416;-90
2022/08/01 07:27:37;;;;;;;3.35;2.53;;;;;;;21.62;79.86;101605.50;5100900;27;20019;-91
2022/08/01 07:30:07;;;;;;;3.72;2.70;;;;;;;21.80;80.03;101607.72;5118309;27;20034;-88
2022/08/01 07:32:35;;;;;;;5.75;2.45;;;;;;;21.92;79.25;101613.00;5118844;27;20121;-93
2022/08/01 07:35:06;;;;;;;4.97;2.33;;;;;;;21.91;78.67;101616.88;5101829;27;20493;-93
2022/08/01 07:37:31;;;;;;;2.73;1.90;;;;;;;21.77;78.00;101607.47;5120653;27;20039;-93
2022/08/01 07:40:06;;;;;;;2.88;1.70;;;;;;;21.64;78.15;101611.56;5119414;27;20493;-93
2022/08/01 07:42:34;;;;;;;3.03;1.63;;;;;;;21.50;78.57;101622.25;5120134;27;20035;-93
2022/08/01 07:45:09;;;;;;;4.22;1.95;;;;;;;21.49;79.45;101623.34;5136932;27;20027;-93
2022/08/01 07:47:42;;;;;;;2.28;1.70;;;;;;;21.55;79.72;101622.28;5119479;27;20020;-93
2022/08/01 07:50:13;;;;;;;3.25;1.40;;;;;;;21.66;77.76;101614.91;5137690;27;20027;-92
2022/08/01 07:52:41;;;;;;;1.80;1.40;;;;;;;21.70;76.42;101622.38;5119425;27;20035;-93
2022/08/01 07:55:10;;;;;;;1.73;1.27;;;;;;;21.70;76.53;101618.75;5119751;27;20030;-93
2022/08/01 07:57:36;;;;;;;3.45;1.20;;;;;;;21.73;76.39;101618.22;5137669;27;20020;-93
2022/08/01 08:00:13;;;;;;;2.75;1.40;;;;;;;21.77;77.08;101621.28;5119094;27;20015;-92
2022/08/01 08:02:38;;;;;;;3.47;1.43;;;;;;;21.87;77.01;101613.81;5120856;27;20047;-93
2022/08/01 08:05:06;;;;;;;1.60;1.50;;;;;;;22.08;74.67;101613.84;5117693;27;20084;-94
2022/08/01 08:07:32;;;;;;;1.93;1.50;;;;;;;22.17;74.18;101623.25;5117255;27;20039;-93
2022/08/01 08:09:58;;;;;;;2.13;1.73;;;;;;;22.27;74.08;101614.16;5117510;27;20046;-92
2022/08/01 08:12:23;;;;;;;1.83;1.43;;;;;;;22.28;73.86;101623.25;5117699;27;20031;-93
2022/08/01 08:14:49;;;;;;;4.75;1.50;;;;;;;22.38;74.10;101626.06;5117659;27;20520;-93
2022/08/01 08:17:17;;;;;;;5.00;1.57;;;;;;;22.52;73.35;101626.34;5135507;27;20032;-93
2022/08/01 08:19:42;;;;;;;4.20;1.90;;;;;;;22.72;72.70;101623.56;5152037;27;20031;-93
2022/08/01 08:22:08;;;;;;;3.27;1.70;;;;;;;22.96;71.82;101634.03;5135851;27;20423;-92
2022/08/01 08:24:35;;;;;;;2.45;1.95;;;;;;;23.08;71.36;101623.47;5117501;27;20027;-92
2022/08/01 08:27:04;;;;;;;1.65;1.52;;;;;;;23.04;69.62;101624.31;5135765;27;20035;-92
2022/08/01 08:29:32;;;;;;;1.92;1.38;;;;;;;22.93;68.72;101626.31;5117237;27;20076;-93
2022/08/01 08:32:01;;;;;;;1.55;1.40;;;;;;;22.85;69.35;101629.63;5117316;27;20030;-93
2022/08/01 08:34:28;;;;;;;3.03;1.53;;;;;;;22.83;69.20;101629.91;5135743;27;20056;-93
2022/08/01 08:37:03;;;;;;;1.88;1.60;;;;;;;23.05;68.13;101621.28;5117869;27;20139;-93
2022/08/01 08:39:32;;;;;;;3.20;1.55;;;;;;;23.38;67.40;101618.16;5117450;27;20042;-93
2022/08/01 08:42:01;;;;;;;1.80;1.20;;;;;;;23.64;65.32;101625.22;5117324;27;20038;-93
2022/08/01 08:44:27;;;;;;;1.77;1.60;;;;;;;23.71;65.33;101615.75;5117106;27;20027;-93
2022/08/01 08:46:53;;;;;;;2.90;1.33;;;;;;;23.59;65.49;101619.72;5117400;27;20034;-93
2022/08/01 08:49:23;;;;;;;1.90;1.60;;;;;;;23.44;66.26;101615.09;5117266;28;20075;-93
2022/08/01 08:51:51;;;;;;;1.95;1.58;;;;;;;23.35;67.56;101622.31;5135778;27;20033;-92
2022/08/01 08:54:21;;;;;;;4.18;1.58;;;;;;;23.17;67.74;101625.72;5117009;28;20031;-93
2022/08/01 08:56:47;;;;;;;2.50;1.30;;;;;;;22.95;66.43;101627.66;5135082;28;20024;-93
2022/08/01 08:59:16;;;;;;;2.55;1.10;;;;;;;22.69;65.97;101626.91;5117082;28;20115;-92
2022/08/01 09:01:42;;;;;;;1.50;1.00;;;;;;;22.66;66.45;101624.69;5116965;28;20058;-93
2022/08/01 09:04:08;;;;;;;1.70;1.20;;;;;;;22.85;67.61;101624.09;5134954;28;20082;-90
2022/08/01 09:06:34;;;;;;;2.63;1.10;;;;;;;22.97;66.66;101624.63;5115699;28;20051;-88
2022/08/01 09:08:59;;;;;;;1.77;1.00;;;;;;;23.05;65.70;101626.00;5115835;28;20066;-85
2022/08/01 09:11:25;;;;;;;1.30;1.00;;;;;;;23.12;64.29;101637.63;5099173;28;20130;-84
2022/08/01 09:14:12;;;;;;;1.73;0.90;;;;;;;23.18;65.39;101636.50;5116053;28;20490;-84
2022/08/01 09:16:41;;;;;;;1.17;1.07;;;;;;;23.29;64.19;101634.53;5134974;28;20292;-84
2022/08/01 09:19:19;;;;;;;1.00;0.90;;;;;;;23.48;65.20;101634.72;5115971;28;20382;-84
2022/08/01 09:21:58;;;;;;;1.40;1.00;;;;;;;23.88;63.97;101640.38;5116020;28;20085;-84
2022/08/01 09:24:26;;;;;;;1.63;1.10;;;;;;;24.09;62.44;101641.88;5134359;28;20031;-84
2022/08/01 09:26:52;;;;;;;1.55;1.25;;;;;;;23.87;60.24;101636.75;5115699;28;20051;-84
2022/08/01 09:29:21;;;;;;;2.27;1.00;;;;;;;23.71;60.73;101644.31;5134250;28;20082;-84
2022/08/01 09:31:47;;;;;;;1.05;0.95;;;;;;;23.69;62.43;101646.53;5134600;28;20034;-84
2022/08/01 09:34:13;;;;;;;1.58;1.20;;;;;;;23.71;62.21;101636.00;5134872;28;20027;-84
2022/08/01 09:36:55;;;;;;;1.13;1.02;;;;;;;23.78;63.03;101639.28;5115941;28;20443;-84
2022/08/01 09:39:30;;;;;;;2.17;1.20;;;;;;;23.96;62.38;101636.97;5116067;28;20045;-84
2022/08/01 09:41:57;;;;;;;0.98;0.98;;;;;;;24.13;61.80;101640.19;5134215;28;20034;-84
2022/08/01 09:44:40;;;;;;;1.55;1.27;;;;;;;24.50;60.77;101643.53;5116089;28;20027;-84
2022/08/01 09:47:06;;;;;;;1.33;1.20;;;;;;;24.84;56.44;101634.34;5134161;27;20031;-84
2022/08/01 09:49:34;;;;;;;1.73;0.90;;;;;;;25.24;56.32;101645.31;5102639;27;20031;-85
2022/08/01 09:52:14;;;;;;;1.10;1.00;;;;;;;25.47;56.16;101644.50;5138140;27;20038;-84
2022/08/01 09:54:41;;;;;;;3.42;1.10;;;;;;;25.80;54.73;101641.00;5138421;27;20088;-84
2022/08/01 09:57:17;;;;;;;2.10;1.10;;;;;;;25.93;55.16;101643.03;5103203;27;20031;-84
2022/08/01 09:59:45;;;;;;;1.10;1.00;;;;;;;25.95;54.51;101651.91;5137513;27;20055;-85
2022/08/01 10:02:13;;;;;;;1.52;1.10;;;;;;;25.94;53.97;101643.84;5137765;27;20034;-85
2022/08/01 10:04:49;;;;;;;1.30;1.10;;;;;;;26.16;55.94;101651.63;5137033;27;20035;-85
2022/08/01 10:07:28;;;;;;;2.25;1.33;;;;;;;26.51;54.97;101652.97;5138072;27;20054;-85
2022/08/01 10:09:53;;;;;;;1.30;1.10;;;;;;;26.75;52.82;101652.91;5118802;27;20035;-85
2022/08/01 10:12:21;;;;;;;1.67;1.33;;;;;;;26.71;51.86;101651.03;5137402;27;20058;-85
2022/08/01 10:14:49;;;;;;;2.20;1.55;;;;;;;26.39;52.11;101647.09;5119465;27;20062;-84
2022/08/01 10:17:16;;;;;;;1.30;1.10;;;;;;;26.44;52.89;101644.19;5118806;27;20051;-84
2022/08/01 10:19:43;;;;;;;1.25;1.15;;;;;;;26.77;53.15;101652.59;5119062;27;20517;-85
2022/08/01 10:22:10;;;;;;;1.80;1.17;;;;;;;27.11;51.42;101651.41;5101868;27;20023;-85
2022/08/01 10:24:39;;;;;;;1.30;1.20;;;;;;;27.37;48.71;101662.03;5136175;27;20035;-85
2022/08/01 10:27:06;;;;;;;2.08;1.35;;;;;;;27.06;49.62;101649.53;5135980;27;20035;-85
2022/08/01 10:29:41;;;;;;;2.53;1.80;;;;;;;26.54;52.76;101654.34;5118779;27;20102;-85
2022/08/01 10:32:09;;;;;;;2.85;2.00;;;;;;;26.02;54.60;101663.50;5119206;27;20076;-84
2022/08/01 10:34:36;;;;;;;3.08;1.60;;;;;;;25.41;56.36;101656.81;5136102;27;20038;-84
2022/08/01 10:37:02;;;;;;;4.05;1.85;;;;;;;25.03;58.16;101670.53;5136811;27;20027;-84
2022/08/01 10:39:29;;;;;;;2.20;1.80;;;;;;;24.97;58.69;101666.16;5101826;27;20084;-92
2022/08/01 10:41:55;;;;;;;2.53;1.60;;;;;;;25.21;59.75;101655.88;5137494;27;20076;-94
2022/08/01 10:44:23;;;;;;;2.03;1.73;;;;;;;25.43;59.37;101660.09;5119042;27;20027;-85
2022/08/01 10:46:52;;;;;;;2.35;1.70;;;;;;;25.83;57.61;101663.47;5135715;27;20058;-85
2022/08/01 10:49:23;;;;;;;2.63;1.50;;;;;;;25.92;56.21;101650.56;5118450;27;20027;-85
2022/08/01 10:51:49;;;;;;;1.97;1.30;;;;;;;25.92;56.04;101664.47;5118905;27;20031;-85
2022/08/01 10:54:14;;;;;;;1.63;1.20;;;;;;;26.08;55.40;101655.91;5118454;27;20027;-85
2022/08/01 10:56:48;;;;;;;4.43;1.17;;;;;;;26.37;55.57;101668.81;5101441;27;20035;-85
2022/08/01 10:59:21;;;;;;;2.45;1.50;;;;;;;26.56;53.80;101675.19;5137107;27;20371;-85
2022/08/01 11:02:04;;;;;;;1.92;1.42;;;;;;;26.90;54.58;101674.06;5137109;27;20050;-85
2022/08/01 11:04:53;;;;;;;3.83;1.50;;;;;;;27.11;53.50;101679.25;5134934;27;20039;-85
2022/08/01 11:07:36;;;;;;;1.60;1.40;;;;;;;26.86;53.89;101683.34;5117759;27;20027;-86
2022/08/01 11:10:15;;;;;;;3.53;1.50;;;;;;;26.72;54.63;101684.13;5118117;27;20038;-85
2022/08/01 11:12:42;;;;;;;3.45;1.00;;;;;;;26.27;54.59;101686.50;5152690;27;20031;-85
2022/08/01 11:15:11;;;;;;;3.58;1.63;;;;;;;25.95;55.86;101687.22;5101485;27;20027;-85
2022/08/01 11:17:47;;;;;;;2.37;1.70;;;;;;;25.78;55.66;101687.72;5117720;27;20035;-85